sensor_id;sensor_type;location;lat;lon;timestamp;P1;durP1;ratioP1;P2;durP2;ratioP2
43413;SDS011;29013;49.676;8.606;2023-08-08T00:01:51;0.62;;;0.64;;
43413;SDS011;29013;49.676;8.606;2023-08-08T00:07:16;2.83;;;0.86;;
43413;SDS011;29013;49.676;8.606;2023-08-08T00:12:41;1.63;;;0.65;;
43413;SDS011;29013;49.676;8.606;2023-08-08T00:18:06;0.75;;;0.61;;
43413;SDS011;29013;49.676;8.606;2023-08-08T00:23:30;1.1;;;0.76;;
43413;SDS011;29013;49.676;8.606;2023-08-08T00:28:54;1.01;;;0.6;;
43413;SDS011;29013;49.676;8.606;2023-08-08T00:34:12;0.94;;;0.79;;
43413;SDS011;29013;49.676;8.606;2023-08-08T00:39:36;1.03;;;0.67;;
43413;SDS011;29013;49.676;8.606;2023-08-08T00:45:01;1.3;;;0.81;;
43413;SDS011;29013;49.676;8.606;2023-08-08T00:50:23;2.18;;;0.67;;
43413;SDS011;29013;49.676;8.606;2023-08-08T00:55:48;1.94;;;0.6;;
43413;SDS011;29013;49.676;8.606;2023-08-08T01:01:12;1.85;;;0.5;;
43413;SDS011;29013;49.676;8.606;2023-08-08T01:06:34;0.76;;;0.55;;
43413;SDS011;29013;49.676;8.606;2023-08-08T01:11:56;1.94;;;0.59;;
43413;SDS011;29013;49.676;8.606;2023-08-08T01:17:20;0.84;;;0.65;;
43413;SDS011;29013;49.676;8.606;2023-08-08T01:23:03;1.62;;;0.72;;
43413;SDS011;29013;49.676;8.606;2023-08-08T01:28:25;1.21;;;0.8;;
43413;SDS011;29013;49.676;8.606;2023-08-08T01:33:47;0.48;;;0.56;;
43413;SDS011;29013;49.676;8.606;2023-08-08T01:39:27;0.96;;;0.73;;
43413;SDS011;29013;49.676;8.606;2023-08-08T01:44:43;0.69;;;0.72;;
43413;SDS011;29013;49.676;8.606;2023-08-08T01:50:06;1.75;;;0.66;;
43413;SDS011;29013;49.676;8.606;2023-08-08T01:55:57;1.4;;;0.84;;
43413;SDS011;29013;49.676;8.606;2023-08-08T02:01:19;0.8;;;0.67;;
43413;SDS011;29013;49.676;8.606;2023-08-08T02:06:42;3.12;;;0.65;;
43413;SDS011;29013;49.676;8.606;2023-08-08T02:12:07;1.27;;;0.62;;
43413;SDS011;29013;49.676;8.606;2023-08-08T02:17:32;0.69;;;0.5;;
43413;SDS011;29013;49.676;8.606;2023-08-08T02:22:55;0.61;;;0.55;;
43413;SDS011;29013;49.676;8.606;2023-08-08T02:28:20;2.43;;;0.83;;
43413;SDS011;29013;49.676;8.606;2023-08-08T02:33:44;1.68;;;0.65;;
43413;SDS011;29013;49.676;8.606;2023-08-08T02:39:07;1.49;;;0.57;;
43413;SDS011;29013;49.676;8.606;2023-08-08T02:44:31;1.25;;;0.75;;
43413;SDS011;29013;49.676;8.606;2023-08-08T02:49:55;1.49;;;0.78;;
43413;SDS011;29013;49.676;8.606;2023-08-08T02:55:17;0.51;;;0.43;;
43413;SDS011;29013;49.676;8.606;2023-08-08T03:00:35;2.47;;;0.51;;
43413;SDS011;29013;49.676;8.606;2023-08-08T03:05:54;1.62;;;0.78;;
43413;SDS011;29013;49.676;8.606;2023-08-08T03:11:31;1.0;;;0.69;;
43413;SDS011;29013;49.676;8.606;2023-08-08T03:16:54;1.52;;;0.91;;
43413;SDS011;29013;49.676;8.606;2023-08-08T03:22:13;2.89;;;1.69;;
43413;SDS011;29013;49.676;8.606;2023-08-08T03:27:35;2.56;;;1.37;;
43413;SDS011;29013;49.676;8.606;2023-08-08T03:32:58;1.58;;;0.87;;
43413;SDS011;29013;49.676;8.606;2023-08-08T03:38:21;1.02;;;0.57;;
43413;SDS011;29013;49.676;8.606;2023-08-08T03:43:46;1.15;;;0.82;;
43413;SDS011;29013;49.676;8.606;2023-08-08T03:49:08;1.01;;;0.52;;
43413;SDS011;29013;49.676;8.606;2023-08-08T03:54:32;2.12;;;0.88;;
43413;SDS011;29013;49.676;8.606;2023-08-08T03:59:55;1.96;;;0.67;;
43413;SDS011;29013;49.676;8.606;2023-08-08T04:05:19;4.82;;;0.78;;
43413;SDS011;29013;49.676;8.606;2023-08-08T04:10:45;2.31;;;0.66;;
43413;SDS011;29013;49.676;8.606;2023-08-08T04:16:08;1.49;;;0.66;;
43413;SDS011;29013;49.676;8.606;2023-08-08T04:21:56;3.42;;;1.08;;
43413;SDS011;29013;49.676;8.606;2023-08-08T04:27:35;2.0;;;1.06;;
43413;SDS011;29013;49.676;8.606;2023-08-08T04:32:58;1.28;;;0.84;;
43413;SDS011;29013;49.676;8.606;2023-08-08T04:38:23;4.92;;;1.03;;
43413;SDS011;29013;49.676;8.606;2023-08-08T04:43:47;1.82;;;0.95;;
43413;SDS011;29013;49.676;8.606;2023-08-08T04:49:12;1.45;;;0.59;;
43413;SDS011;29013;49.676;8.606;2023-08-08T04:54:36;1.39;;;0.81;;
43413;SDS011;29013;49.676;8.606;2023-08-08T05:00:22;3.21;;;0.85;;
43413;SDS011;29013;49.676;8.606;2023-08-08T05:05:43;1.0;;;0.82;;
43413;SDS011;29013;49.676;8.606;2023-08-08T05:11:33;1.77;;;0.96;;
43413;SDS011;29013;49.676;8.606;2023-08-08T05:16:56;1.54;;;0.95;;
43413;SDS011;29013;49.676;8.606;2023-08-08T05:22:19;2.45;;;0.67;;
43413;SDS011;29013;49.676;8.606;2023-08-08T05:27:45;1.45;;;0.76;;
43413;SDS011;29013;49.676;8.606;2023-08-08T05:33:35;1.64;;;0.8;;
43413;SDS011;29013;49.676;8.606;2023-08-08T05:38:59;1.98;;;0.87;;
43413;SDS011;29013;49.676;8.606;2023-08-08T05:45:14;2.43;;;1.06;;
43413;SDS011;29013;49.676;8.606;2023-08-08T05:50:37;2.44;;;0.84;;
43413;SDS011;29013;49.676;8.606;2023-08-08T05:56:02;2.84;;;0.82;;
43413;SDS011;29013;49.676;8.606;2023-08-08T06:01:24;0.79;;;0.53;;
43413;SDS011;29013;49.676;8.606;2023-08-08T06:06:46;2.2;;;1.01;;
43413;SDS011;29013;49.676;8.606;2023-08-08T06:12:11;1.64;;;0.79;;
43413;SDS011;29013;49.676;8.606;2023-08-08T06:17:41;0.9;;;0.75;;
43413;SDS011;29013;49.676;8.606;2023-08-08T06:23:05;1.47;;;0.92;;
43413;SDS011;29013;49.676;8.606;2023-08-08T06:28:30;2.03;;;0.72;;
43413;SDS011;29013;49.676;8.606;2023-08-08T06:33:48;2.25;;;0.87;;
43413;SDS011;29013;49.676;8.606;2023-08-08T06:39:06;2.52;;;0.93;;
43413;SDS011;29013;49.676;8.606;2023-08-08T06:44:28;1.26;;;0.91;;
43413;SDS011;29013;49.676;8.606;2023-08-08T06:49:52;1.24;;;0.71;;
43413;SDS011;29013;49.676;8.606;2023-08-08T06:55:42;1.76;;;0.74;;
43413;SDS011;29013;49.676;8.606;2023-08-08T07:01:31;1.55;;;1.04;;
43413;SDS011;29013;49.676;8.606;2023-08-08T07:06:55;2.01;;;0.73;;
43413;SDS011;29013;49.676;8.606;2023-08-08T07:12:15;1.95;;;1.04;;
43413;SDS011;29013;49.676;8.606;2023-08-08T07:17:38;2.06;;;0.81;;
43413;SDS011;29013;49.676;8.606;2023-08-08T07:23:03;3.02;;;0.78;;
43413;SDS011;29013;49.676;8.606;2023-08-08T07:28:27;1.87;;;0.68;;
43413;SDS011;29013;49.676;8.606;2023-08-08T07:33:51;1.23;;;0.85;;
43413;SDS011;29013;49.676;8.606;2023-08-08T07:39:14;4.96;;;1.88;;
43413;SDS011;29013;49.676;8.606;2023-08-08T07:44:38;2.59;;;0.76;;
43413;SDS011;29013;49.676;8.606;2023-08-08T07:50:01;1.53;;;0.54;;
43413;SDS011;29013;49.676;8.606;2023-08-08T07:55:25;0.37;;;0.41;;
43413;SDS011;29013;49.676;8.606;2023-08-08T08:01:05;0.44;;;0.34;;
43413;SDS011;29013;49.676;8.606;2023-08-08T08:06:28;1.52;;;0.34;;
43413;SDS011;29013;49.676;8.606;2023-08-08T08:11:49;2.49;;;0.63;;
43413;SDS011;29013;49.676;8.606;2023-08-08T08:17:14;1.06;;;0.38;;
43413;SDS011;29013;49.676;8.606;2023-08-08T08:22:38;0.53;;;0.42;;
43413;SDS011;29013;49.676;8.606;2023-08-08T08:28:03;0.61;;;0.33;;
43413;SDS011;29013;49.676;8.606;2023-08-08T08:33:28;0.54;;;0.26;;
43413;SDS011;29013;49.676;8.606;2023-08-08T08:38:53;0.26;;;0.2;;
43413;SDS011;29013;49.676;8.606;2023-08-08T08:44:15;0.34;;;0.28;;
43413;SDS011;29013;49.676;8.606;2023-08-08T08:49:36;0.5;;;0.33;;
43413;SDS011;29013;49.676;8.606;2023-08-08T08:55:01;0.77;;;0.31;;
43413;SDS011;29013;49.676;8.606;2023-08-08T09:00:26;0.44;;;0.31;;
43413;SDS011;29013;49.676;8.606;2023-08-08T09:05:51;0.49;;;0.36;;
43413;SDS011;29013;49.676;8.606;2023-08-08T09:11:16;1.25;;;0.45;;
43413;SDS011;29013;49.676;8.606;2023-08-08T09:16:41;0.42;;;0.27;;
43413;SDS011;29013;49.676;8.606;2023-08-08T09:22:07;0.52;;;0.48;;
43413;SDS011;29013;49.676;8.606;2023-08-08T09:27:26;0.58;;;0.37;;
43413;SDS011;29013;49.676;8.606;2023-08-08T09:32:48;0.34;;;0.27;;
43413;SDS011;29013;49.676;8.606;2023-08-08T09:38:12;0.5;;;0.36;;
43413;SDS011;29013;49.676;8.606;2023-08-08T09:43:37;0.33;;;0.35;;
43413;SDS011;29013;49.676;8.606;2023-08-08T09:49:01;1.56;;;0.46;;
43413;SDS011;29013;49.676;8.606;2023-08-08T09:54:26;0.87;;;0.34;;
43413;SDS011;29013;49.676;8.606;2023-08-08T09:59:52;1.1;;;0.3;;
43413;SDS011;29013;49.676;8.606;2023-08-08T10:10:38;1.3;;;0.82;;
43413;SDS011;29013;49.676;8.606;2023-08-08T10:16:03;0.45;;;0.4;;
43413;SDS011;29013;49.676;8.606;2023-08-08T10:21:24;0.43;;;0.38;;
43413;SDS011;29013;49.676;8.606;2023-08-08T10:26:52;0.53;;;0.45;;
43413;SDS011;29013;49.676;8.606;2023-08-08T10:32:21;0.91;;;0.36;;
43413;SDS011;29013;49.676;8.606;2023-08-08T10:37:58;1.08;;;0.43;;
43413;SDS011;29013;49.676;8.606;2023-08-08T10:43:50;1.16;;;0.49;;
43413;SDS011;29013;49.676;8.606;2023-08-08T10:49:13;1.81;;;0.55;;
43413;SDS011;29013;49.676;8.606;2023-08-08T10:54:37;1.96;;;0.47;;
43413;SDS011;29013;49.676;8.606;2023-08-08T11:05:39;0.76;;;0.33;;
43413;SDS011;29013;49.676;8.606;2023-08-08T11:11:27;1.41;;;0.52;;
43413;SDS011;29013;49.676;8.606;2023-08-08T11:16:50;1.68;;;0.7;;
43413;SDS011;29013;49.676;8.606;2023-08-08T11:22:14;0.39;;;0.45;;
43413;SDS011;29013;49.676;8.606;2023-08-08T11:27:40;1.37;;;0.63;;
43413;SDS011;29013;49.676;8.606;2023-08-08T11:33:10;0.98;;;0.43;;
43413;SDS011;29013;49.676;8.606;2023-08-08T11:38:34;3.57;;;0.41;;
43413;SDS011;29013;49.676;8.606;2023-08-08T11:44:01;2.78;;;0.6;;
43413;SDS011;29013;49.676;8.606;2023-08-08T11:49:21;1.06;;;0.49;;
43413;SDS011;29013;49.676;8.606;2023-08-08T11:54:51;0.61;;;0.31;;
43413;SDS011;29013;49.676;8.606;2023-08-08T12:00:32;1.66;;;0.59;;
43413;SDS011;29013;49.676;8.606;2023-08-08T12:06:16;1.18;;;0.53;;
43413;SDS011;29013;49.676;8.606;2023-08-08T12:11:36;0.61;;;0.32;;
43413;SDS011;29013;49.676;8.606;2023-08-08T12:16:59;1.86;;;0.57;;
43413;SDS011;29013;49.676;8.606;2023-08-08T12:22:18;0.89;;;0.49;;
43413;SDS011;29013;49.676;8.606;2023-08-08T12:27:41;1.37;;;0.51;;
43413;SDS011;29013;49.676;8.606;2023-08-08T12:33:05;2.28;;;0.57;;
43413;SDS011;29013;49.676;8.606;2023-08-08T12:38:48;0.94;;;0.45;;
43413;SDS011;29013;49.676;8.606;2023-08-08T12:44:12;0.92;;;0.43;;
43413;SDS011;29013;49.676;8.606;2023-08-08T12:49:37;0.73;;;0.3;;
43413;SDS011;29013;49.676;8.606;2023-08-08T12:55:02;0.47;;;0.34;;
43413;SDS011;29013;49.676;8.606;2023-08-08T13:00:29;0.82;;;0.44;;
43413;SDS011;29013;49.676;8.606;2023-08-08T13:05:55;2.41;;;0.64;;
43413;SDS011;29013;49.676;8.606;2023-08-08T13:11:19;1.44;;;0.46;;
43413;SDS011;29013;49.676;8.606;2023-08-08T13:16:43;0.56;;;0.48;;
43413;SDS011;29013;49.676;8.606;2023-08-08T13:22:06;0.39;;;0.29;;
43413;SDS011;29013;49.676;8.606;2023-08-08T13:27:26;1.77;;;0.54;;
43413;SDS011;29013;49.676;8.606;2023-08-08T13:32:48;2.07;;;0.59;;
43413;SDS011;29013;49.676;8.606;2023-08-08T13:38:06;0.67;;;0.6;;
43413;SDS011;29013;49.676;8.606;2023-08-08T13:43:25;0.44;;;0.31;;
43413;SDS011;29013;49.676;8.606;2023-08-08T13:48:48;0.99;;;0.41;;
43413;SDS011;29013;49.676;8.606;2023-08-08T13:54:12;0.47;;;0.26;;
43413;SDS011;29013;49.676;8.606;2023-08-08T13:59:35;1.36;;;0.34;;
43413;SDS011;29013;49.676;8.606;2023-08-08T14:04:57;1.04;;;0.39;;
43413;SDS011;29013;49.676;8.606;2023-08-08T14:10:20;0.57;;;0.39;;
43413;SDS011;29013;49.676;8.606;2023-08-08T14:15:41;0.79;;;0.4;;
43413;SDS011;29013;49.676;8.606;2023-08-08T14:21:05;0.75;;;0.37;;
43413;SDS011;29013;49.676;8.606;2023-08-08T14:26:29;4.63;;;0.81;;
43413;SDS011;29013;49.676;8.606;2023-08-08T14:32:17;1.87;;;0.43;;
43413;SDS011;29013;49.676;8.606;2023-08-08T14:37:39;0.89;;;0.42;;
43413;SDS011;29013;49.676;8.606;2023-08-08T14:43:04;0.26;;;0.28;;
43413;SDS011;29013;49.676;8.606;2023-08-08T14:48:27;0.7;;;0.42;;
43413;SDS011;29013;49.676;8.606;2023-08-08T14:53:53;0.8;;;0.49;;
43413;SDS011;29013;49.676;8.606;2023-08-08T14:59:18;1.08;;;0.45;;
43413;SDS011;29013;49.676;8.606;2023-08-08T15:05:00;0.71;;;0.4;;
43413;SDS011;29013;49.676;8.606;2023-08-08T15:10:26;2.24;;;0.82;;
43413;SDS011;29013;49.676;8.606;2023-08-08T15:15:49;0.87;;;0.44;;
43413;SDS011;29013;49.676;8.606;2023-08-08T15:21:11;1.96;;;0.51;;
43413;SDS011;29013;49.676;8.606;2023-08-08T15:26:37;5.2;;;0.48;;
43413;SDS011;29013;49.676;8.606;2023-08-08T15:32:25;1.76;;;0.53;;
43413;SDS011;29013;49.676;8.606;2023-08-08T15:37:49;0.52;;;0.35;;
43413;SDS011;29013;49.676;8.606;2023-08-08T15:43:14;1.27;;;0.38;;
43413;SDS011;29013;49.676;8.606;2023-08-08T15:48:39;2.36;;;0.8;;
43413;SDS011;29013;49.676;8.606;2023-08-08T15:54:18;1.6;;;0.42;;
43413;SDS011;29013;49.676;8.606;2023-08-08T15:59:42;0.84;;;0.28;;
43413;SDS011;29013;49.676;8.606;2023-08-08T16:05:08;0.85;;;0.44;;
43413;SDS011;29013;49.676;8.606;2023-08-08T16:10:31;2.21;;;0.43;;
43413;SDS011;29013;49.676;8.606;2023-08-08T16:15:54;1.84;;;0.59;;
43413;SDS011;29013;49.676;8.606;2023-08-08T16:21:21;0.5;;;0.52;;
43413;SDS011;29013;49.676;8.606;2023-08-08T16:26:46;1.23;;;0.77;;
43413;SDS011;29013;49.676;8.606;2023-08-08T16:32:15;1.14;;;0.67;;
43413;SDS011;29013;49.676;8.606;2023-08-08T16:37:36;1.52;;;0.56;;
43413;SDS011;29013;49.676;8.606;2023-08-08T16:42:58;0.45;;;0.34;;
43413;SDS011;29013;49.676;8.606;2023-08-08T16:48:21;2.12;;;0.55;;
43413;SDS011;29013;49.676;8.606;2023-08-08T16:53:46;2.82;;;0.56;;
43413;SDS011;29013;49.676;8.606;2023-08-08T16:59:13;1.18;;;0.61;;
43413;SDS011;29013;49.676;8.606;2023-08-08T17:04:33;1.1;;;0.56;;
43413;SDS011;29013;49.676;8.606;2023-08-08T17:10:00;1.15;;;0.58;;
43413;SDS011;29013;49.676;8.606;2023-08-08T17:15:21;1.43;;;0.55;;
43413;SDS011;29013;49.676;8.606;2023-08-08T17:43:06;2.27;;;0.66;;
43413;SDS011;29013;49.676;8.606;2023-08-08T17:48:24;1.2;;;0.61;;
43413;SDS011;29013;49.676;8.606;2023-08-08T17:53:45;1.47;;;0.56;;
43413;SDS011;29013;49.676;8.606;2023-08-08T17:59:05;1.16;;;0.54;;
43413;SDS011;29013;49.676;8.606;2023-08-08T18:04:24;1.06;;;0.58;;
43413;SDS011;29013;49.676;8.606;2023-08-08T18:09:48;2.74;;;0.78;;
43413;SDS011;29013;49.676;8.606;2023-08-08T18:15:08;1.96;;;0.8;;
43413;SDS011;29013;49.676;8.606;2023-08-08T18:20:28;5.09;;;0.89;;
43413;SDS011;29013;49.676;8.606;2023-08-08T18:25:52;2.9;;;0.84;;
43413;SDS011;29013;49.676;8.606;2023-08-08T18:31:17;3.52;;;0.75;;
43413;SDS011;29013;49.676;8.606;2023-08-08T18:36:38;1.04;;;0.53;;
43413;SDS011;29013;49.676;8.606;2023-08-08T18:42:28;1.35;;;0.77;;
43413;SDS011;29013;49.676;8.606;2023-08-08T18:48:09;3.0;;;0.76;;
43413;SDS011;29013;49.676;8.606;2023-08-08T18:53:28;0.83;;;0.63;;
43413;SDS011;29013;49.676;8.606;2023-08-08T18:58:52;1.49;;;0.59;;
43413;SDS011;29013;49.676;8.606;2023-08-08T19:04:14;1.45;;;0.52;;
43413;SDS011;29013;49.676;8.606;2023-08-08T19:09:34;1.81;;;0.71;;
43413;SDS011;29013;49.676;8.606;2023-08-08T19:15:21;1.67;;;0.81;;
43413;SDS011;29013;49.676;8.606;2023-08-08T19:20:41;1.52;;;0.77;;
43413;SDS011;29013;49.676;8.606;2023-08-08T19:26:28;1.72;;;0.66;;
43413;SDS011;29013;49.676;8.606;2023-08-08T19:31:50;0.75;;;0.49;;
43413;SDS011;29013;49.676;8.606;2023-08-08T19:37:12;2.82;;;0.72;;
43413;SDS011;29013;49.676;8.606;2023-08-08T19:42:34;1.93;;;0.66;;
43413;SDS011;29013;49.676;8.606;2023-08-08T19:47:57;1.15;;;0.52;;
43413;SDS011;29013;49.676;8.606;2023-08-08T19:53:22;1.03;;;0.83;;
43413;SDS011;29013;49.676;8.606;2023-08-08T19:58:45;0.77;;;0.6;;
43413;SDS011;29013;49.676;8.606;2023-08-08T20:04:07;0.7;;;0.58;;
43413;SDS011;29013;49.676;8.606;2023-08-08T20:09:46;1.28;;;0.66;;
43413;SDS011;29013;49.676;8.606;2023-08-08T20:15:10;1.07;;;0.61;;
43413;SDS011;29013;49.676;8.606;2023-08-08T20:20:33;1.11;;;0.7;;
43413;SDS011;29013;49.676;8.606;2023-08-08T20:25:58;1.46;;;0.73;;
43413;SDS011;29013;49.676;8.606;2023-08-08T20:31:22;1.29;;;0.94;;
43413;SDS011;29013;49.676;8.606;2023-08-08T20:36:44;1.5;;;0.93;;
43413;SDS011;29013;49.676;8.606;2023-08-08T20:42:06;0.89;;;0.74;;
43413;SDS011;29013;49.676;8.606;2023-08-08T20:47:27;3.11;;;0.89;;
43413;SDS011;29013;49.676;8.606;2023-08-08T20:52:51;3.77;;;0.71;;
43413;SDS011;29013;49.676;8.606;2023-08-08T20:58:12;1.1;;;0.71;;
43413;SDS011;29013;49.676;8.606;2023-08-08T21:03:37;1.6;;;0.67;;
43413;SDS011;29013;49.676;8.606;2023-08-08T21:08:58;1.11;;;0.6;;
43413;SDS011;29013;49.676;8.606;2023-08-08T21:14:23;1.33;;;0.87;;
43413;SDS011;29013;49.676;8.606;2023-08-08T21:19:41;1.5;;;0.76;;
43413;SDS011;29013;49.676;8.606;2023-08-08T21:24:59;2.26;;;0.86;;
43413;SDS011;29013;49.676;8.606;2023-08-08T21:30:23;1.08;;;0.7;;
43413;SDS011;29013;49.676;8.606;2023-08-08T21:35:48;1.57;;;0.8;;
43413;SDS011;29013;49.676;8.606;2023-08-08T21:41:09;1.72;;;1.1;;
43413;SDS011;29013;49.676;8.606;2023-08-08T21:46:33;2.41;;;0.86;;
43413;SDS011;29013;49.676;8.606;2023-08-08T21:51:53;1.82;;;1.0;;
43413;SDS011;29013;49.676;8.606;2023-08-08T21:57:14;1.66;;;1.13;;
43413;SDS011;29013;49.676;8.606;2023-08-08T22:02:37;1.1;;;0.81;;
43413;SDS011;29013;49.676;8.606;2023-08-08T22:08:00;2.86;;;1.23;;
43413;SDS011;29013;49.676;8.606;2023-08-08T22:13:23;1.54;;;0.91;;
43413;SDS011;29013;49.676;8.606;2023-08-08T22:18:48;2.29;;;1.11;;
43413;SDS011;29013;49.676;8.606;2023-08-08T22:24:11;3.11;;;1.09;;
43413;SDS011;29013;49.676;8.606;2023-08-08T22:29:34;1.12;;;1.01;;
43413;SDS011;29013;49.676;8.606;2023-08-08T22:34:59;1.69;;;0.99;;
43413;SDS011;29013;49.676;8.606;2023-08-08T22:40:23;1.5;;;0.82;;
43413;SDS011;29013;49.676;8.606;2023-08-08T22:45:48;0.8;;;0.9;;
43413;SDS011;29013;49.676;8.606;2023-08-08T22:51:13;0.97;;;0.78;;
43413;SDS011;29013;49.676;8.606;2023-08-08T22:56:35;1.28;;;0.99;;
43413;SDS011;29013;49.676;8.606;2023-08-08T23:01:58;1.78;;;1.0;;
43413;SDS011;29013;49.676;8.606;2023-08-08T23:07:23;1.65;;;1.16;;
43413;SDS011;29013;49.676;8.606;2023-08-08T23:12:48;1.65;;;0.87;;
43413;SDS011;29013;49.676;8.606;2023-08-08T23:18:12;6.82;;;1.06;;
43413;SDS011;29013;49.676;8.606;2023-08-08T23:23:37;2.51;;;1.05;;
43413;SDS011;29013;49.676;8.606;2023-08-08T23:29:02;1.49;;;0.93;;
43413;SDS011;29013;49.676;8.606;2023-08-08T23:34:26;4.03;;;1.25;;
43413;SDS011;29013;49.676;8.606;2023-08-08T23:39:51;2.06;;;1.11;;
43413;SDS011;29013;49.676;8.606;2023-08-08T23:45:34;2.05;;;1.23;;
43413;SDS011;29013;49.676;8.606;2023-08-08T23:50:56;1.7;;;1.12;;
43413;SDS011;29013;49.676;8.606;2023-08-08T23:56:21;1.62;;;0.95;;
